sensor_id;sensor_type;location;lat;lon;timestamp;P1;durP1;ratioP1;P2;durP2;ratioP2
36715;SDS011;22699;51.034;3.730;2024-03-06T00:01:49;11.82;;;9.43;;
36715;SDS011;22699;51.034;3.730;2024-03-06T00:04:14;11.85;;;10.02;;
36715;SDS011;22699;51.034;3.730;2024-03-06T00:06:40;15.32;;;9.52;;
36715;SDS011;22699;51.034;3.730;2024-03-06T00:09:06;12.20;;;9.52;;
36715;SDS011;22699;51.034;3.730;2024-03-06T00:11:33;11.27;;;9.70;;
36715;SDS011;22699;51.034;3.730;2024-03-06T00:14:00;12.05;;;10.20;;
36715;SDS011;22699;51.034;3.730;2024-03-06T00:16:32;13.70;;;9.75;;
36715;SDS011;22699;51.034;3.730;2024-03-06T00:18:57;11.25;;;8.85;;
36715;SDS011;22699;51.034;3.730;2024-03-06T00:21:23;12.77;;;10.35;;
36715;SDS011;22699;51.034;3.730;2024-03-06T00:23:49;11.75;;;10.07;;
36715;SDS011;22699;51.034;3.730;2024-03-06T00:26:14;11.75;;;9.75;;
36715;SDS011;22699;51.034;3.730;2024-03-06T00:28:40;11.23;;;8.70;;
36715;SDS011;22699;51.034;3.730;2024-03-06T00:31:05;10.38;;;8.63;;
36715;SDS011;22699;51.034;3.730;2024-03-06T00:33:31;12.98;;;9.65;;
36715;SDS011;22699;51.034;3.730;2024-03-06T00:35:57;12.30;;;9.02;;
36715;SDS011;22699;51.034;3.730;2024-03-06T00:38:22;11.45;;;9.02;;
36715;SDS011;22699;51.034;3.730;2024-03-06T00:40:48;11.18;;;9.45;;
36715;SDS011;22699;51.034;3.730;2024-03-06T00:43:14;12.52;;;9.38;;
36715;SDS011;22699;51.034;3.730;2024-03-06T00:45:39;11.77;;;10.05;;
36715;SDS011;22699;51.034;3.730;2024-03-06T00:48:05;11.65;;;10.15;;
36715;SDS011;22699;51.034;3.730;2024-03-06T00:50:31;12.32;;;9.57;;
36715;SDS011;22699;51.034;3.730;2024-03-06T00:52:57;15.02;;;10.25;;
36715;SDS011;22699;51.034;3.730;2024-03-06T00:55:23;12.88;;;9.68;;
36715;SDS011;22699;51.034;3.730;2024-03-06T00:57:49;12.13;;;9.85;;
36715;SDS011;22699;51.034;3.730;2024-03-06T01:00:14;11.65;;;9.32;;
36715;SDS011;22699;51.034;3.730;2024-03-06T01:02:41;12.27;;;9.30;;
36715;SDS011;22699;51.034;3.730;2024-03-06T01:05:06;13.00;;;10.40;;
36715;SDS011;22699;51.034;3.730;2024-03-06T01:07:34;13.02;;;9.77;;
36715;SDS011;22699;51.034;3.730;2024-03-06T01:10:02;11.13;;;10.02;;
36715;SDS011;22699;51.034;3.730;2024-03-06T01:12:28;14.80;;;11.40;;
36715;SDS011;22699;51.034;3.730;2024-03-06T01:14:53;11.85;;;10.10;;
36715;SDS011;22699;51.034;3.730;2024-03-06T01:17:20;12.88;;;10.77;;
36715;SDS011;22699;51.034;3.730;2024-03-06T01:19:45;11.38;;;10.27;;
36715;SDS011;22699;51.034;3.730;2024-03-06T01:22:11;14.20;;;11.40;;
36715;SDS011;22699;51.034;3.730;2024-03-06T01:24:39;12.07;;;10.88;;
36715;SDS011;22699;51.034;3.730;2024-03-06T01:27:05;11.75;;;10.52;;
36715;SDS011;22699;51.034;3.730;2024-03-06T01:29:31;16.65;;;11.40;;
36715;SDS011;22699;51.034;3.730;2024-03-06T01:31:57;14.98;;;11.02;;
36715;SDS011;22699;51.034;3.730;2024-03-06T01:34:23;15.23;;;11.52;;
36715;SDS011;22699;51.034;3.730;2024-03-06T01:36:50;15.63;;;11.93;;
36715;SDS011;22699;51.034;3.730;2024-03-06T01:39:16;12.85;;;11.05;;
36715;SDS011;22699;51.034;3.730;2024-03-06T01:41:51;13.45;;;11.82;;
36715;SDS011;22699;51.034;3.730;2024-03-06T01:44:17;14.55;;;11.55;;
36715;SDS011;22699;51.034;3.730;2024-03-06T01:46:43;12.35;;;11.00;;
36715;SDS011;22699;51.034;3.730;2024-03-06T01:49:10;13.02;;;10.98;;
36715;SDS011;22699;51.034;3.730;2024-03-06T01:51:37;13.90;;;11.82;;
36715;SDS011;22699;51.034;3.730;2024-03-06T01:54:05;13.75;;;11.27;;
36715;SDS011;22699;51.034;3.730;2024-03-06T01:56:33;13.13;;;11.38;;
36715;SDS011;22699;51.034;3.730;2024-03-06T01:59:00;15.73;;;11.90;;
36715;SDS011;22699;51.034;3.730;2024-03-06T02:01:28;15.90;;;11.73;;
36715;SDS011;22699;51.034;3.730;2024-03-06T02:03:54;14.27;;;12.85;;
36715;SDS011;22699;51.034;3.730;2024-03-06T02:06:21;13.80;;;12.35;;
36715;SDS011;22699;51.034;3.730;2024-03-06T02:08:47;15.07;;;12.95;;
36715;SDS011;22699;51.034;3.730;2024-03-06T02:11:13;15.95;;;12.20;;
36715;SDS011;22699;51.034;3.730;2024-03-06T02:13:40;15.38;;;12.00;;
36715;SDS011;22699;51.034;3.730;2024-03-06T02:16:07;16.15;;;12.02;;
36715;SDS011;22699;51.034;3.730;2024-03-06T02:18:32;14.63;;;12.13;;
36715;SDS011;22699;51.034;3.730;2024-03-06T02:20:58;15.40;;;12.07;;
36715;SDS011;22699;51.034;3.730;2024-03-06T02:23:23;14.00;;;12.32;;
36715;SDS011;22699;51.034;3.730;2024-03-06T02:25:49;13.75;;;11.35;;
36715;SDS011;22699;51.034;3.730;2024-03-06T02:28:16;13.32;;;10.98;;
36715;SDS011;22699;51.034;3.730;2024-03-06T02:30:42;17.73;;;13.27;;
36715;SDS011;22699;51.034;3.730;2024-03-06T02:33:08;15.25;;;13.40;;
36715;SDS011;22699;51.034;3.730;2024-03-06T02:35:34;18.17;;;14.98;;
36715;SDS011;22699;51.034;3.730;2024-03-06T02:38:01;16.85;;;13.63;;
36715;SDS011;22699;51.034;3.730;2024-03-06T02:40:29;17.02;;;14.68;;
36715;SDS011;22699;51.034;3.730;2024-03-06T02:42:58;18.50;;;13.98;;
36715;SDS011;22699;51.034;3.730;2024-03-06T02:45:23;18.38;;;14.25;;
36715;SDS011;22699;51.034;3.730;2024-03-06T02:47:49;18.63;;;15.43;;
36715;SDS011;22699;51.034;3.730;2024-03-06T02:50:16;20.17;;;15.30;;
36715;SDS011;22699;51.034;3.730;2024-03-06T02:52:41;20.40;;;15.48;;
36715;SDS011;22699;51.034;3.730;2024-03-06T02:55:07;20.73;;;16.38;;
36715;SDS011;22699;51.034;3.730;2024-03-06T02:57:33;24.27;;;18.02;;
36715;SDS011;22699;51.034;3.730;2024-03-06T02:59:59;21.48;;;16.13;;
36715;SDS011;22699;51.034;3.730;2024-03-06T03:02:24;21.58;;;15.48;;
36715;SDS011;22699;51.034;3.730;2024-03-06T03:04:53;22.98;;;16.75;;
36715;SDS011;22699;51.034;3.730;2024-03-06T03:07:19;20.92;;;16.38;;
36715;SDS011;22699;51.034;3.730;2024-03-06T03:09:44;21.38;;;17.15;;
36715;SDS011;22699;51.034;3.730;2024-03-06T03:12:10;21.70;;;17.42;;
36715;SDS011;22699;51.034;3.730;2024-03-06T03:14:36;23.02;;;16.63;;
36715;SDS011;22699;51.034;3.730;2024-03-06T03:17:02;21.50;;;17.17;;
36715;SDS011;22699;51.034;3.730;2024-03-06T03:19:30;22.05;;;18.20;;
36715;SDS011;22699;51.034;3.730;2024-03-06T03:21:56;19.92;;;17.02;;
36715;SDS011;22699;51.034;3.730;2024-03-06T03:24:23;18.52;;;16.30;;
36715;SDS011;22699;51.034;3.730;2024-03-06T03:26:50;23.45;;;17.38;;
36715;SDS011;22699;51.034;3.730;2024-03-06T03:29:16;22.98;;;17.83;;
36715;SDS011;22699;51.034;3.730;2024-03-06T03:31:42;19.30;;;15.70;;
36715;SDS011;22699;51.034;3.730;2024-03-06T03:34:08;21.13;;;16.98;;
36715;SDS011;22699;51.034;3.730;2024-03-06T03:36:35;18.60;;;15.90;;
36715;SDS011;22699;51.034;3.730;2024-03-06T03:39:04;21.52;;;18.35;;
36715;SDS011;22699;51.034;3.730;2024-03-06T03:41:30;20.95;;;16.13;;
36715;SDS011;22699;51.034;3.730;2024-03-06T03:43:55;20.00;;;15.95;;
36715;SDS011;22699;51.034;3.730;2024-03-06T03:46:21;18.60;;;15.43;;
36715;SDS011;22699;51.034;3.730;2024-03-06T03:48:46;17.88;;;15.95;;
36715;SDS011;22699;51.034;3.730;2024-03-06T03:51:12;21.58;;;15.85;;
36715;SDS011;22699;51.034;3.730;2024-03-06T03:53:39;19.17;;;16.00;;
36715;SDS011;22699;51.034;3.730;2024-03-06T03:56:04;21.42;;;17.13;;
36715;SDS011;22699;51.034;3.730;2024-03-06T03:58:31;23.55;;;18.08;;
36715;SDS011;22699;51.034;3.730;2024-03-06T04:00:57;24.73;;;18.55;;
36715;SDS011;22699;51.034;3.730;2024-03-06T04:03:22;22.83;;;18.73;;
36715;SDS011;22699;51.034;3.730;2024-03-06T04:05:49;22.30;;;18.58;;
36715;SDS011;22699;51.034;3.730;2024-03-06T04:08:14;24.80;;;20.40;;
36715;SDS011;22699;51.034;3.730;2024-03-06T04:10:41;21.83;;;18.13;;
36715;SDS011;22699;51.034;3.730;2024-03-06T04:13:10;22.88;;;16.58;;
36715;SDS011;22699;51.034;3.730;2024-03-06T04:15:36;19.05;;;16.35;;
36715;SDS011;22699;51.034;3.730;2024-03-06T04:18:01;19.45;;;15.52;;
36715;SDS011;22699;51.034;3.730;2024-03-06T04:20:27;24.23;;;18.73;;
36715;SDS011;22699;51.034;3.730;2024-03-06T04:22:52;26.25;;;19.83;;
36715;SDS011;22699;51.034;3.730;2024-03-06T04:25:18;26.23;;;20.42;;
36715;SDS011;22699;51.034;3.730;2024-03-06T04:27:44;24.23;;;20.00;;
36715;SDS011;22699;51.034;3.730;2024-03-06T04:30:10;23.50;;;17.98;;
36715;SDS011;22699;51.034;3.730;2024-03-06T04:32:36;21.90;;;16.65;;
36715;SDS011;22699;51.034;3.730;2024-03-06T04:35:01;20.05;;;17.70;;
36715;SDS011;22699;51.034;3.730;2024-03-06T04:37:27;21.55;;;17.20;;
36715;SDS011;22699;51.034;3.730;2024-03-06T04:39:54;22.73;;;18.23;;
36715;SDS011;22699;51.034;3.730;2024-03-06T04:42:20;24.45;;;19.63;;
36715;SDS011;22699;51.034;3.730;2024-03-06T04:44:45;26.45;;;19.10;;
36715;SDS011;22699;51.034;3.730;2024-03-06T04:47:11;27.77;;;21.02;;
36715;SDS011;22699;51.034;3.730;2024-03-06T04:49:37;21.95;;;17.55;;
36715;SDS011;22699;51.034;3.730;2024-03-06T04:52:02;20.70;;;17.02;;
36715;SDS011;22699;51.034;3.730;2024-03-06T04:54:28;23.60;;;17.83;;
36715;SDS011;22699;51.034;3.730;2024-03-06T04:56:54;20.23;;;16.33;;
36715;SDS011;22699;51.034;3.730;2024-03-06T04:59:20;24.13;;;18.92;;
36715;SDS011;22699;51.034;3.730;2024-03-06T05:01:46;25.73;;;19.38;;
36715;SDS011;22699;51.034;3.730;2024-03-06T05:04:12;26.88;;;20.58;;
36715;SDS011;22699;51.034;3.730;2024-03-06T05:06:38;22.30;;;18.27;;
36715;SDS011;22699;51.034;3.730;2024-03-06T05:09:03;24.23;;;18.63;;
36715;SDS011;22699;51.034;3.730;2024-03-06T05:11:30;23.75;;;19.15;;
36715;SDS011;22699;51.034;3.730;2024-03-06T05:13:59;20.95;;;17.17;;
36715;SDS011;22699;51.034;3.730;2024-03-06T05:16:25;24.83;;;18.30;;
36715;SDS011;22699;51.034;3.730;2024-03-06T05:18:51;21.02;;;17.92;;
36715;SDS011;22699;51.034;3.730;2024-03-06T05:21:17;21.90;;;17.60;;
36715;SDS011;22699;51.034;3.730;2024-03-06T05:23:43;27.00;;;19.80;;
36715;SDS011;22699;51.034;3.730;2024-03-06T05:26:09;25.13;;;20.00;;
36715;SDS011;22699;51.034;3.730;2024-03-06T05:28:34;25.63;;;20.30;;
36715;SDS011;22699;51.034;3.730;2024-03-06T05:31:00;27.98;;;21.48;;
36715;SDS011;22699;51.034;3.730;2024-03-06T05:33:26;25.58;;;21.00;;
36715;SDS011;22699;51.034;3.730;2024-03-06T05:35:54;28.08;;;22.77;;
36715;SDS011;22699;51.034;3.730;2024-03-06T05:38:19;29.92;;;22.35;;
36715;SDS011;22699;51.034;3.730;2024-03-06T05:40:47;28.63;;;23.35;;
36715;SDS011;22699;51.034;3.730;2024-03-06T05:43:12;27.42;;;21.15;;
36715;SDS011;22699;51.034;3.730;2024-03-06T05:45:38;24.42;;;20.50;;
36715;SDS011;22699;51.034;3.730;2024-03-06T05:48:04;30.48;;;22.60;;
36715;SDS011;22699;51.034;3.730;2024-03-06T05:50:30;27.80;;;22.13;;
36715;SDS011;22699;51.034;3.730;2024-03-06T05:52:57;32.47;;;23.42;;
36715;SDS011;22699;51.034;3.730;2024-03-06T05:55:23;27.42;;;21.13;;
36715;SDS011;22699;51.034;3.730;2024-03-06T05:57:48;29.58;;;21.45;;
36715;SDS011;22699;51.034;3.730;2024-03-06T06:00:14;27.42;;;22.15;;
36715;SDS011;22699;51.034;3.730;2024-03-06T06:02:43;28.15;;;21.60;;
36715;SDS011;22699;51.034;3.730;2024-03-06T06:05:10;25.55;;;19.40;;
36715;SDS011;22699;51.034;3.730;2024-03-06T06:07:36;23.73;;;19.45;;
36715;SDS011;22699;51.034;3.730;2024-03-06T06:10:03;24.40;;;19.50;;
36715;SDS011;22699;51.034;3.730;2024-03-06T06:12:33;27.77;;;22.02;;
36715;SDS011;22699;51.034;3.730;2024-03-06T06:14:58;28.90;;;21.40;;
36715;SDS011;22699;51.034;3.730;2024-03-06T06:17:24;26.13;;;20.52;;
36715;SDS011;22699;51.034;3.730;2024-03-06T06:19:50;26.08;;;20.80;;
36715;SDS011;22699;51.034;3.730;2024-03-06T06:22:15;28.30;;;21.13;;
36715;SDS011;22699;51.034;3.730;2024-03-06T06:24:41;27.85;;;21.23;;
36715;SDS011;22699;51.034;3.730;2024-03-06T06:27:07;38.58;;;23.48;;
36715;SDS011;22699;51.034;3.730;2024-03-06T06:29:33;32.05;;;24.33;;
36715;SDS011;22699;51.034;3.730;2024-03-06T06:32:00;29.52;;;23.77;;
36715;SDS011;22699;51.034;3.730;2024-03-06T06:34:25;30.30;;;23.45;;
36715;SDS011;22699;51.034;3.730;2024-03-06T06:36:53;31.17;;;24.23;;
36715;SDS011;22699;51.034;3.730;2024-03-06T06:39:20;32.10;;;23.08;;
36715;SDS011;22699;51.034;3.730;2024-03-06T06:41:46;28.10;;;22.35;;
36715;SDS011;22699;51.034;3.730;2024-03-06T06:44:12;30.92;;;23.35;;
36715;SDS011;22699;51.034;3.730;2024-03-06T06:46:39;26.95;;;21.80;;
36715;SDS011;22699;51.034;3.730;2024-03-06T06:49:05;29.02;;;22.10;;
36715;SDS011;22699;51.034;3.730;2024-03-06T06:51:30;26.45;;;21.23;;
36715;SDS011;22699;51.034;3.730;2024-03-06T06:53:56;27.42;;;22.30;;
36715;SDS011;22699;51.034;3.730;2024-03-06T06:56:21;36.28;;;24.33;;
36715;SDS011;22699;51.034;3.730;2024-03-06T06:58:49;50.45;;;26.88;;
36715;SDS011;22699;51.034;3.730;2024-03-06T07:01:15;30.83;;;24.65;;
36715;SDS011;22699;51.034;3.730;2024-03-06T07:03:41;29.70;;;22.67;;
36715;SDS011;22699;51.034;3.730;2024-03-06T07:06:08;27.67;;;22.38;;
36715;SDS011;22699;51.034;3.730;2024-03-06T07:08:35;25.33;;;19.88;;
36715;SDS011;22699;51.034;3.730;2024-03-06T07:11:03;27.55;;;22.35;;
36715;SDS011;22699;51.034;3.730;2024-03-06T07:13:30;28.60;;;23.02;;
36715;SDS011;22699;51.034;3.730;2024-03-06T07:15:55;25.80;;;22.05;;
36715;SDS011;22699;51.034;3.730;2024-03-06T07:18:21;27.85;;;23.70;;
36715;SDS011;22699;51.034;3.730;2024-03-06T07:20:47;26.63;;;20.83;;
36715;SDS011;22699;51.034;3.730;2024-03-06T07:23:12;29.00;;;21.83;;
36715;SDS011;22699;51.034;3.730;2024-03-06T07:25:38;24.23;;;21.05;;
36715;SDS011;22699;51.034;3.730;2024-03-06T07:28:05;25.80;;;20.05;;
36715;SDS011;22699;51.034;3.730;2024-03-06T07:30:31;26.27;;;20.38;;
36715;SDS011;22699;51.034;3.730;2024-03-06T07:32:56;28.00;;;20.33;;
36715;SDS011;22699;51.034;3.730;2024-03-06T07:35:28;26.45;;;19.23;;
36715;SDS011;22699;51.034;3.730;2024-03-06T07:37:54;24.40;;;20.55;;
36715;SDS011;22699;51.034;3.730;2024-03-06T07:40:19;23.95;;;19.40;;
36715;SDS011;22699;51.034;3.730;2024-03-06T07:42:47;28.70;;;20.13;;
36715;SDS011;22699;51.034;3.730;2024-03-06T07:45:14;27.77;;;20.20;;
36715;SDS011;22699;51.034;3.730;2024-03-06T07:47:41;30.25;;;21.55;;
36715;SDS011;22699;51.034;3.730;2024-03-06T07:50:07;30.92;;;22.80;;
36715;SDS011;22699;51.034;3.730;2024-03-06T07:52:36;35.00;;;24.25;;
36715;SDS011;22699;51.034;3.730;2024-03-06T07:55:02;36.47;;;25.40;;
36715;SDS011;22699;51.034;3.730;2024-03-06T07:57:33;34.92;;;25.00;;
36715;SDS011;22699;51.034;3.730;2024-03-06T07:59:59;38.40;;;23.63;;
36715;SDS011;22699;51.034;3.730;2024-03-06T08:02:25;44.00;;;27.70;;
36715;SDS011;22699;51.034;3.730;2024-03-06T08:04:50;36.92;;;24.63;;
36715;SDS011;22699;51.034;3.730;2024-03-06T08:07:16;39.08;;;24.42;;
36715;SDS011;22699;51.034;3.730;2024-03-06T08:09:41;38.03;;;26.20;;
36715;SDS011;22699;51.034;3.730;2024-03-06T08:12:08;39.13;;;24.65;;
36715;SDS011;22699;51.034;3.730;2024-03-06T08:14:33;39.40;;;24.02;;
36715;SDS011;22699;51.034;3.730;2024-03-06T08:17:00;42.38;;;27.38;;
36715;SDS011;22699;51.034;3.730;2024-03-06T08:19:28;40.33;;;25.35;;
36715;SDS011;22699;51.034;3.730;2024-03-06T08:21:54;42.95;;;26.58;;
36715;SDS011;22699;51.034;3.730;2024-03-06T08:24:19;38.92;;;24.95;;
36715;SDS011;22699;51.034;3.730;2024-03-06T08:26:45;41.10;;;24.92;;
36715;SDS011;22699;51.034;3.730;2024-03-06T08:29:27;38.85;;;23.88;;
36715;SDS011;22699;51.034;3.730;2024-03-06T08:31:53;38.33;;;25.05;;
36715;SDS011;22699;51.034;3.730;2024-03-06T08:34:22;41.33;;;24.67;;
36715;SDS011;22699;51.034;3.730;2024-03-06T08:36:49;43.70;;;24.70;;
36715;SDS011;22699;51.034;3.730;2024-03-06T08:39:14;38.50;;;24.33;;
36715;SDS011;22699;51.034;3.730;2024-03-06T08:41:41;37.75;;;24.50;;
36715;SDS011;22699;51.034;3.730;2024-03-06T08:44:07;40.90;;;25.40;;
36715;SDS011;22699;51.034;3.730;2024-03-06T08:46:32;40.30;;;24.58;;
36715;SDS011;22699;51.034;3.730;2024-03-06T08:48:58;38.67;;;24.55;;
36715;SDS011;22699;51.034;3.730;2024-03-06T08:51:24;38.08;;;23.23;;
36715;SDS011;22699;51.034;3.730;2024-03-06T08:53:51;36.75;;;23.77;;
36715;SDS011;22699;51.034;3.730;2024-03-06T08:56:16;42.60;;;25.17;;
36715;SDS011;22699;51.034;3.730;2024-03-06T08:58:44;39.63;;;24.50;;
36715;SDS011;22699;51.034;3.730;2024-03-06T09:01:10;42.83;;;25.10;;
36715;SDS011;22699;51.034;3.730;2024-03-06T09:03:35;43.15;;;24.33;;
36715;SDS011;22699;51.034;3.730;2024-03-06T09:06:01;41.05;;;25.30;;
36715;SDS011;22699;51.034;3.730;2024-03-06T09:08:28;41.00;;;25.48;;
36715;SDS011;22699;51.034;3.730;2024-03-06T09:10:53;40.15;;;24.92;;
36715;SDS011;22699;51.034;3.730;2024-03-06T09:13:19;43.67;;;25.88;;
36715;SDS011;22699;51.034;3.730;2024-03-06T09:15:44;43.75;;;26.30;;
36715;SDS011;22699;51.034;3.730;2024-03-06T09:18:10;34.28;;;23.20;;
36715;SDS011;22699;51.034;3.730;2024-03-06T09:20:36;35.55;;;22.92;;
36715;SDS011;22699;51.034;3.730;2024-03-06T09:23:01;39.15;;;24.40;;
36715;SDS011;22699;51.034;3.730;2024-03-06T09:25:27;39.08;;;25.52;;
36715;SDS011;22699;51.034;3.730;2024-03-06T09:27:53;33.70;;;23.40;;
36715;SDS011;22699;51.034;3.730;2024-03-06T09:30:19;36.17;;;22.95;;
36715;SDS011;22699;51.034;3.730;2024-03-06T09:32:45;33.80;;;22.70;;
36715;SDS011;22699;51.034;3.730;2024-03-06T09:35:10;33.75;;;22.15;;
36715;SDS011;22699;51.034;3.730;2024-03-06T09:37:36;33.38;;;21.65;;
36715;SDS011;22699;51.034;3.730;2024-03-06T09:40:01;26.33;;;19.15;;
36715;SDS011;22699;51.034;3.730;2024-03-06T09:42:28;31.50;;;19.52;;
36715;SDS011;22699;51.034;3.730;2024-03-06T09:44:54;30.92;;;21.25;;
36715;SDS011;22699;51.034;3.730;2024-03-06T09:47:21;30.70;;;20.70;;
36715;SDS011;22699;51.034;3.730;2024-03-06T09:49:50;40.17;;;23.27;;
36715;SDS011;22699;51.034;3.730;2024-03-06T09:52:18;28.38;;;20.42;;
36715;SDS011;22699;51.034;3.730;2024-03-06T09:54:44;29.48;;;19.92;;
36715;SDS011;22699;51.034;3.730;2024-03-06T09:57:09;34.80;;;20.70;;
36715;SDS011;22699;51.034;3.730;2024-03-06T09:59:37;29.17;;;20.10;;
36715;SDS011;22699;51.034;3.730;2024-03-06T10:02:15;29.63;;;20.52;;
36715;SDS011;22699;51.034;3.730;2024-03-06T10:04:54;32.58;;;21.83;;
36715;SDS011;22699;51.034;3.730;2024-03-06T10:07:19;29.08;;;20.63;;
36715;SDS011;22699;51.034;3.730;2024-03-06T10:09:46;27.38;;;20.67;;
36715;SDS011;22699;51.034;3.730;2024-03-06T10:12:12;31.10;;;21.25;;
36715;SDS011;22699;51.034;3.730;2024-03-06T10:14:48;26.48;;;19.80;;
36715;SDS011;22699;51.034;3.730;2024-03-06T10:17:17;28.98;;;20.55;;
36715;SDS011;22699;51.034;3.730;2024-03-06T10:19:47;27.05;;;19.52;;
36715;SDS011;22699;51.034;3.730;2024-03-06T10:22:15;26.85;;;20.13;;
36715;SDS011;22699;51.034;3.730;2024-03-06T10:24:42;33.65;;;20.60;;
36715;SDS011;22699;51.034;3.730;2024-03-06T10:27:07;25.00;;;18.40;;
36715;SDS011;22699;51.034;3.730;2024-03-06T10:29:34;29.50;;;19.88;;
36715;SDS011;22699;51.034;3.730;2024-03-06T10:32:00;23.98;;;17.60;;
36715;SDS011;22699;51.034;3.730;2024-03-06T10:34:26;28.58;;;19.48;;
36715;SDS011;22699;51.034;3.730;2024-03-06T10:36:57;24.48;;;17.70;;
36715;SDS011;22699;51.034;3.730;2024-03-06T10:39:25;26.73;;;19.85;;
36715;SDS011;22699;51.034;3.730;2024-03-06T10:41:53;22.25;;;17.75;;
36715;SDS011;22699;51.034;3.730;2024-03-06T10:44:22;32.67;;;18.63;;
36715;SDS011;22699;51.034;3.730;2024-03-06T10:46:53;25.90;;;16.30;;
36715;SDS011;22699;51.034;3.730;2024-03-06T10:49:25;23.00;;;17.25;;
36715;SDS011;22699;51.034;3.730;2024-03-06T10:51:53;24.92;;;17.30;;
36715;SDS011;22699;51.034;3.730;2024-03-06T10:54:22;30.85;;;17.23;;
36715;SDS011;22699;51.034;3.730;2024-03-06T10:56:51;19.02;;;14.88;;
36715;SDS011;22699;51.034;3.730;2024-03-06T10:59:18;20.25;;;15.55;;
36715;SDS011;22699;51.034;3.730;2024-03-06T11:01:46;23.48;;;16.48;;
36715;SDS011;22699;51.034;3.730;2024-03-06T11:04:12;24.17;;;16.65;;
36715;SDS011;22699;51.034;3.730;2024-03-06T11:06:40;25.25;;;16.90;;
36715;SDS011;22699;51.034;3.730;2024-03-06T11:09:06;25.38;;;16.83;;
36715;SDS011;22699;51.034;3.730;2024-03-06T11:11:39;19.52;;;14.77;;
36715;SDS011;22699;51.034;3.730;2024-03-06T11:14:16;19.88;;;15.18;;
36715;SDS011;22699;51.034;3.730;2024-03-06T11:28:19;16.83;;;10.27;;
36715;SDS011;22699;51.034;3.730;2024-03-06T11:30:49;14.93;;;9.88;;
36715;SDS011;22699;51.034;3.730;2024-03-06T11:33:34;11.27;;;9.27;;
36715;SDS011;22699;51.034;3.730;2024-03-06T11:38:51;10.50;;;7.97;;
36715;SDS011;22699;51.034;3.730;2024-03-06T11:41:30;9.40;;;7.88;;
36715;SDS011;22699;51.034;3.730;2024-03-06T11:43:59;11.50;;;8.80;;
36715;SDS011;22699;51.034;3.730;2024-03-06T11:49:17;9.77;;;6.55;;
36715;SDS011;22699;51.034;3.730;2024-03-06T11:51:47;9.32;;;7.07;;
36715;SDS011;22699;51.034;3.730;2024-03-06T11:54:13;12.07;;;7.43;;
36715;SDS011;22699;51.034;3.730;2024-03-06T11:56:43;16.52;;;8.50;;
36715;SDS011;22699;51.034;3.730;2024-03-06T11:59:12;8.48;;;6.43;;
36715;SDS011;22699;51.034;3.730;2024-03-06T12:01:38;12.27;;;6.68;;
36715;SDS011;22699;51.034;3.730;2024-03-06T12:04:06;13.23;;;7.75;;
36715;SDS011;22699;51.034;3.730;2024-03-06T12:06:36;16.58;;;7.03;;
36715;SDS011;22699;51.034;3.730;2024-03-06T12:09:02;9.27;;;5.88;;
36715;SDS011;22699;51.034;3.730;2024-03-06T12:11:28;8.27;;;5.20;;
36715;SDS011;22699;51.034;3.730;2024-03-06T12:13:59;8.82;;;5.30;;
36715;SDS011;22699;51.034;3.730;2024-03-06T12:16:25;7.10;;;5.15;;
36715;SDS011;22699;51.034;3.730;2024-03-06T12:18:56;8.55;;;6.40;;
36715;SDS011;22699;51.034;3.730;2024-03-06T12:24:04;10.20;;;6.55;;
36715;SDS011;22699;51.034;3.730;2024-03-06T12:26:33;10.60;;;6.20;;
36715;SDS011;22699;51.034;3.730;2024-03-06T12:29:17;9.23;;;6.75;;
36715;SDS011;22699;51.034;3.730;2024-03-06T12:31:52;10.13;;;6.10;;
36715;SDS011;22699;51.034;3.730;2024-03-06T12:34:17;9.00;;;6.43;;
36715;SDS011;22699;51.034;3.730;2024-03-06T12:36:43;9.98;;;6.60;;
36715;SDS011;22699;51.034;3.730;2024-03-06T12:39:10;8.68;;;6.55;;
36715;SDS011;22699;51.034;3.730;2024-03-06T12:41:42;11.27;;;8.02;;
36715;SDS011;22699;51.034;3.730;2024-03-06T12:44:09;11.40;;;7.40;;
36715;SDS011;22699;51.034;3.730;2024-03-06T12:46:35;9.95;;;7.63;;
36715;SDS011;22699;51.034;3.730;2024-03-06T12:49:01;8.82;;;6.72;;
36715;SDS011;22699;51.034;3.730;2024-03-06T12:51:26;9.65;;;6.68;;
36715;SDS011;22699;51.034;3.730;2024-03-06T12:53:52;9.23;;;6.70;;
36715;SDS011;22699;51.034;3.730;2024-03-06T12:56:18;10.38;;;7.18;;
36715;SDS011;22699;51.034;3.730;2024-03-06T12:58:44;10.40;;;7.20;;
36715;SDS011;22699;51.034;3.730;2024-03-06T13:01:09;8.57;;;6.10;;
36715;SDS011;22699;51.034;3.730;2024-03-06T13:03:35;7.10;;;5.03;;
36715;SDS011;22699;51.034;3.730;2024-03-06T13:06:02;7.13;;;5.93;;
36715;SDS011;22699;51.034;3.730;2024-03-06T13:08:29;8.90;;;6.18;;
36715;SDS011;22699;51.034;3.730;2024-03-06T13:10:55;10.77;;;6.45;;
36715;SDS011;22699;51.034;3.730;2024-03-06T13:13:21;6.47;;;4.90;;
36715;SDS011;22699;51.034;3.730;2024-03-06T13:15:48;8.75;;;5.20;;
36715;SDS011;22699;51.034;3.730;2024-03-06T13:18:17;6.47;;;4.93;;
36715;SDS011;22699;51.034;3.730;2024-03-06T13:20:43;9.23;;;5.10;;
36715;SDS011;22699;51.034;3.730;2024-03-06T13:23:09;8.32;;;5.03;;
36715;SDS011;22699;51.034;3.730;2024-03-06T13:25:35;9.13;;;4.13;;
36715;SDS011;22699;51.034;3.730;2024-03-06T13:28:01;6.30;;;4.85;;
36715;SDS011;22699;51.034;3.730;2024-03-06T13:30:28;6.50;;;4.47;;
36715;SDS011;22699;51.034;3.730;2024-03-06T13:32:53;6.63;;;4.45;;
36715;SDS011;22699;51.034;3.730;2024-03-06T13:35:19;6.80;;;4.60;;
36715;SDS011;22699;51.034;3.730;2024-03-06T13:37:45;7.90;;;4.22;;
36715;SDS011;22699;51.034;3.730;2024-03-06T13:40:11;7.80;;;4.13;;
36715;SDS011;22699;51.034;3.730;2024-03-06T13:42:38;5.28;;;3.97;;
36715;SDS011;22699;51.034;3.730;2024-03-06T13:45:05;5.95;;;4.20;;
36715;SDS011;22699;51.034;3.730;2024-03-06T13:47:39;7.22;;;4.30;;
36715;SDS011;22699;51.034;3.730;2024-03-06T13:50:11;4.65;;;3.80;;
36715;SDS011;22699;51.034;3.730;2024-03-06T13:52:38;5.30;;;4.65;;
36715;SDS011;22699;51.034;3.730;2024-03-06T13:55:06;8.05;;;4.35;;
36715;SDS011;22699;51.034;3.730;2024-03-06T13:57:33;9.50;;;6.30;;
36715;SDS011;22699;51.034;3.730;2024-03-06T14:00:00;6.40;;;4.70;;
36715;SDS011;22699;51.034;3.730;2024-03-06T14:02:27;9.40;;;5.35;;
36715;SDS011;22699;51.034;3.730;2024-03-06T14:04:52;8.07;;;5.35;;
36715;SDS011;22699;51.034;3.730;2024-03-06T14:07:18;7.55;;;4.93;;
36715;SDS011;22699;51.034;3.730;2024-03-06T14:09:43;6.10;;;4.85;;
36715;SDS011;22699;51.034;3.730;2024-03-06T14:12:09;6.03;;;4.75;;
36715;SDS011;22699;51.034;3.730;2024-03-06T14:14:34;9.93;;;4.70;;
36715;SDS011;22699;51.034;3.730;2024-03-06T14:17:00;6.45;;;4.60;;
36715;SDS011;22699;51.034;3.730;2024-03-06T14:19:26;7.00;;;4.93;;
36715;SDS011;22699;51.034;3.730;2024-03-06T14:21:51;6.22;;;4.55;;
36715;SDS011;22699;51.034;3.730;2024-03-06T14:24:17;8.18;;;4.75;;
36715;SDS011;22699;51.034;3.730;2024-03-06T14:26:43;5.30;;;4.05;;
36715;SDS011;22699;51.034;3.730;2024-03-06T14:29:10;9.23;;;4.95;;
36715;SDS011;22699;51.034;3.730;2024-03-06T14:31:35;6.38;;;4.10;;
36715;SDS011;22699;51.034;3.730;2024-03-06T14:34:01;4.97;;;3.90;;
36715;SDS011;22699;51.034;3.730;2024-03-06T14:36:27;9.27;;;4.55;;
36715;SDS011;22699;51.034;3.730;2024-03-06T14:38:54;8.15;;;4.22;;
36715;SDS011;22699;51.034;3.730;2024-03-06T14:41:19;7.85;;;4.03;;
36715;SDS011;22699;51.034;3.730;2024-03-06T14:43:45;7.30;;;4.97;;
36715;SDS011;22699;51.034;3.730;2024-03-06T14:46:11;8.50;;;5.20;;